Time;durP1;ratioP1;P1;durP2;ratioP2;P2;SDS_P1;SDS_P2;PMS_P1;PMS_P2;Temp;Humidity;BMP_temperature;BMP_pressure;BME280_temperature;BME280_humidity;BME280_pressure;Samples;Min_cycle;Max_cycle;Signal;HPM_P1;HPM_P2
2022/09/25 00:01:16;;;;;;;0.60;0.10;;;15.10;1.00;;;;;;5048776;28;20612;-77
2022/09/25 00:03:46;;;;;;;0.60;0.10;;;15.10;1.00;;;;;;5052426;28;20457;-77
2022/09/25 00:06:16;;;;;;;0.60;0.10;;;15.10;1.00;;;;;;5053431;28;20443;-77
2022/09/25 00:08:45;;;;;;;0.60;0.10;;;15.00;1.00;;;;;;5055234;28;20548;-78
2022/09/25 00:11:15;;;;;;;0.60;0.10;;;15.00;1.00;;;;;;5060804;28;20458;-77
2022/09/25 00:13:44;;;;;;;0.60;0.10;;;15.10;1.00;;;;;;5065888;28;20488;-76
2022/09/25 00:16:13;;;;;;;0.60;0.10;;;14.20;1.00;;;;;;5053737;28;20456;-77
2022/09/25 00:21:29;;;;;;;0.60;0.13;;;15.00;1.00;;;;;;5038292;28;20459;-78
2022/09/25 00:23:59;;;;;;;0.60;0.10;;;15.00;1.00;;;;;;5036148;28;21032;-77
2022/09/25 00:26:29;;;;;;;0.60;0.10;;;15.00;1.00;;;;;;5035955;28;20513;-77
2022/09/25 00:29:00;;;;;;;0.60;0.10;;;15.00;1.00;;;;;;5036083;28;20478;-77
2022/09/25 00:31:29;;;;;;;0.60;0.10;;;15.00;1.00;;;;;;5038269;28;20447;-77
2022/09/25 00:33:59;;;;;;;0.60;0.10;;;15.00;1.00;;;;;;5053852;28;20450;-77
2022/09/25 00:36:29;;;;;;;0.60;0.10;;;14.90;1.00;;;;;;5054698;28;21164;-77
2022/09/25 00:38:57;;;;;;;0.60;0.10;;;14.40;1.00;;;;;;5055423;28;20850;-79
2022/09/25 00:41:27;;;;;;;0.60;0.10;;;14.90;1.00;;;;;;5040063;28;20447;-78
2022/09/25 00:43:56;;;;;;;0.60;0.10;;;14.90;1.00;;;;;;5039142;28;20513;-79
2022/09/25 00:46:27;;;;;;;0.60;0.10;;;14.90;1.00;;;;;;5040736;28;20679;-76
2022/09/25 00:48:59;;;;;;;0.60;0.10;;;14.90;1.00;;;;;;5038600;28;20487;-78
2022/09/25 00:51:33;;;;;;;0.60;0.10;;;14.90;1.00;;;;;;5035342;28;20546;-76
2022/09/25 00:54:04;;;;;;;0.60;0.10;;;14.90;1.00;;;;;;5034810;28;20447;-77
2022/09/25 00:56:37;;;;;;;0.60;0.20;;;14.90;1.00;;;;;;5043735;28;20532;-79
2022/09/25 00:59:09;;;;;;;0.60;0.10;;;14.90;1.00;;;;;;5055174;28;20450;-78
2022/09/25 01:01:37;;;;;;;0.60;0.10;;;14.90;1.00;;;;;;5059184;28;20439;-78
2022/09/25 01:04:05;;;;;;;0.60;0.10;;;14.90;1.00;;;;;;5058234;28;20782;-77
2022/09/25 01:06:35;;;;;;;0.60;0.10;;;14.90;1.00;;;;;;5055092;28;20497;-77
2022/09/25 01:09:04;;;;;;;0.60;0.10;;;14.90;1.00;;;;;;5041734;28;20479;-77
2022/09/25 01:11:32;;;;;;;0.60;0.10;;;14.90;1.00;;;;;;5047945;28;20448;-76
2022/09/25 01:14:03;;;;;;;0.60;0.10;;;14.90;1.00;;;;;;5054918;28;20438;-77
2022/09/25 01:16:38;;;;;;;0.60;0.10;;;14.90;1.00;;;;;;5061461;28;20466;-78
2022/09/25 01:19:21;;;;;;;0.60;0.10;;;14.90;1.00;;;;;;5064389;28;20450;-77
2022/09/25 01:21:54;;;;;;;0.60;0.10;;;14.90;1.00;;;;;;5054619;28;20474;-77
2022/09/25 01:24:40;;;;;;;0.60;0.10;;;14.90;1.00;;;;;;5040489;28;20435;-78
2022/09/25 01:27:40;;;;;;;0.60;0.10;;;14.90;1.00;;;;;;5039519;28;20479;-77
2022/09/25 01:30:12;;;;;;;0.60;0.10;;;14.90;1.00;;;;;;5040775;28;20514;-79
2022/09/25 01:32:55;;;;;;;0.60;0.10;;;14.80;1.00;;;;;;5036417;28;20846;-79
2022/09/25 01:35:33;;;;;;;0.60;0.10;;;14.80;1.00;;;;;;5039318;28;20450;-78
2022/09/25 01:38:10;;;;;;;0.60;0.10;;;14.90;1.00;;;;;;5057082;28;20462;-77
2022/09/25 01:40:44;;;;;;;3.20;2.10;;;14.90;1.00;;;;;;5054150;28;20446;-78
2022/09/25 01:43:15;;;;;;;0.60;0.10;;;14.90;1.00;;;;;;5056249;28;20492;-77
2022/09/25 01:45:49;;;;;;;0.60;0.20;;;14.90;1.00;;;;;;5055835;28;20447;-76
2022/09/25 01:48:20;;;;;;;0.60;0.10;;;14.80;1.00;;;;;;5055528;28;20508;-76
2022/09/25 01:50:53;;;;;;;0.60;0.10;;;14.80;1.00;;;;;;5061035;28;20454;-77
2022/09/25 01:53:25;;;;;;;0.60;0.10;;;14.90;1.00;;;;;;5060191;28;20442;-77
2022/09/25 01:55:58;;;;;;;0.60;0.10;;;14.80;1.00;;;;;;5057598;28;20485;-77
2022/09/25 01:58:31;;;;;;;0.60;0.10;;;14.80;1.00;;;;;;5054445;28;20538;-78
2022/09/25 02:01:05;;;;;;;0.60;0.10;;;14.80;1.00;;;;;;5051591;28;20521;-77
2022/09/25 02:03:39;;;;;;;0.60;0.10;;;14.80;1.00;;;;;;5051177;28;20534;-78
2022/09/25 02:06:10;;;;;;;0.60;0.20;;;14.80;1.00;;;;;;5056754;28;20454;-76
2022/09/25 02:08:43;;;;;;;0.60;0.10;;;14.80;1.00;;;;;;5057923;28;20506;-78
2022/09/25 02:11:13;;;;;;;0.60;0.10;;;14.80;1.00;;;;;;5063136;28;20450;-78
2022/09/25 02:13:47;;;;;;;0.60;0.10;;;14.80;1.00;;;;;;5050453;28;20452;-78
2022/09/25 02:16:19;;;;;;;0.60;0.10;;;14.80;1.00;;;;;;5046856;28;20438;-77
2022/09/25 02:21:44;;;;;;;0.60;0.10;;;14.80;1.00;;;;;;5042470;28;20578;-78
2022/09/25 02:24:19;;;;;;;0.60;0.10;;;14.80;1.00;;;;;;5043441;28;20443;-78
2022/09/25 02:26:48;;;;;;;0.60;0.10;;;14.80;1.00;;;;;;5054212;28;20517;-77
2022/09/25 02:29:18;;;;;;;0.60;0.10;;;14.80;1.00;;;;;;5041191;28;20481;-77
2022/09/25 02:31:52;;;;;;;0.60;0.10;;;14.80;1.00;;;;;;5061281;28;20443;-77
2022/09/25 02:34:20;;;;;;;0.60;0.20;;;14.80;1.00;;;;;;5059637;28;20492;-77
2022/09/25 02:36:48;;;;;;;0.60;0.10;;;14.70;1.00;;;;;;5059728;28;20479;-77
2022/09/25 02:39:21;;;;;;;0.60;0.10;;;14.70;1.00;;;;;;5057916;28;20450;-77
2022/09/25 02:42:04;;;;;;;0.60;0.20;;;14.70;1.00;;;;;;5041591;28;20451;-77
2022/09/25 02:44:43;;;;;;;0.60;0.10;;;14.70;1.00;;;;;;5042701;28;20443;-77
2022/09/25 02:47:24;;;;;;;0.60;0.10;;;14.70;1.00;;;;;;5042774;28;20467;-77
2022/09/25 02:50:01;;;;;;;0.60;0.10;;;14.70;1.00;;;;;;5044118;28;20475;-77
2022/09/25 02:52:37;;;;;;;0.60;0.10;;;14.70;1.00;;;;;;5047100;28;20435;-76
2022/09/25 02:55:10;;;;;;;0.60;0.10;;;14.70;1.00;;;;;;5061572;28;20937;-78
2022/09/25 02:57:45;;;;;;;0.60;0.10;;;14.70;1.00;;;;;;5059751;28;20458;-78
2022/09/25 03:00:13;;;;;;;0.60;0.10;;;14.60;1.00;;;;;;5057172;28;20434;-77
2022/09/25 03:02:45;;;;;;;0.60;0.10;;;14.60;1.00;;;;;;5055319;28;20459;-77
2022/09/25 03:05:20;;;;;;;0.60;0.10;;;14.60;1.00;;;;;;5055337;28;20476;-78
2022/09/25 03:10:35;;;;;;;0.60;0.10;;;14.60;1.00;;;;;;5043586;28;20470;-78
2022/09/25 03:13:19;;;;;;;4.10;1.67;;;14.50;1.00;;;;;;5062781;28;20945;-77
2022/09/25 03:15:52;;;;;;;0.60;0.10;;;14.50;1.00;;;;;;5063452;28;20442;-78
2022/09/25 03:18:21;;;;;;;0.60;0.10;;;14.50;1.00;;;;;;5068968;28;20482;-77
2022/09/25 03:20:49;;;;;;;0.60;0.17;;;14.50;1.00;;;;;;5070584;28;20445;-77
2022/09/25 03:23:17;;;;;;;0.60;0.10;;;14.40;1.00;;;;;;5069851;28;20457;-77
2022/09/25 03:25:46;;;;;;;0.60;0.10;;;14.40;1.00;;;;;;5070074;28;20439;-78
2022/09/25 03:28:17;;;;;;;0.60;0.10;;;14.40;1.00;;;;;;5068390;28;20466;-78
2022/09/25 03:30:54;;;;;;;0.60;0.10;;;14.40;1.00;;;;;;5065016;28;20508;-77
2022/09/25 03:33:24;;;;;;;0.60;0.10;;;14.40;1.00;;;;;;5066697;28;20446;-78
2022/09/25 03:36:02;;;;;;;0.60;0.10;;;14.40;1.00;;;;;;5065997;28;20455;-78
2022/09/25 03:38:30;;;;;;;0.60;0.10;;;14.40;1.00;;;;;;5059916;28;20430;-78
2022/09/25 03:41:08;;;;;;;0.60;0.10;;;14.40;1.00;;;;;;5058157;28;20430;-78
2022/09/25 03:43:36;;;;;;;0.60;0.10;;;14.40;1.00;;;;;;5076911;22;20486;-78
2022/09/25 03:46:04;;;;;;;0.60;0.10;;;14.40;1.00;;;;;;5055101;28;20507;-78
2022/09/25 03:48:34;;;;;;;0.60;0.10;;;14.40;1.00;;;;;;5055802;28;20446;-79
2022/09/25 03:51:03;;;;;;;0.60;0.10;;;14.40;1.00;;;;;;5071054;28;20842;-78
2022/09/25 03:53:32;;;;;;;0.60;0.10;;;14.40;1.00;;;;;;5044330;28;20467;-78
2022/09/25 03:56:00;;;;;;;0.60;0.10;;;14.40;1.00;;;;;;5035106;28;20538;-78
2022/09/25 03:58:28;;;;;;;0.60;0.10;;;14.40;1.00;;;;;;5030187;28;20505;-78
2022/09/25 04:00:56;;;;;;;0.60;0.10;;;14.40;1.00;;;;;;5034903;28;20444;-77
2022/09/25 04:03:26;;;;;;;0.60;0.10;;;14.40;1.00;;;;;;5039633;28;20462;-77
2022/09/25 04:05:57;;;;;;;0.60;0.10;;;14.40;1.00;;;;;;5054974;28;20435;-78
2022/09/25 04:08:26;;;;;;;0.60;0.10;;;14.40;1.00;;;;;;5054686;28;20504;-79
2022/09/25 04:10:55;;;;;;;0.60;0.10;;;14.40;1.00;;;;;;5046526;28;20471;-78
2022/09/25 04:13:23;;;;;;;0.60;0.10;;;14.40;1.00;;;;;;5034175;28;20470;-78
2022/09/25 04:15:51;;;;;;;0.60;0.10;;;14.40;1.00;;;;;;5034538;28;20447;-78
2022/09/25 04:18:19;;;;;;;0.60;0.10;;;14.40;1.00;;;;;;5047416;28;20843;-78
2022/09/25 04:20:46;;;;;;;0.60;0.10;;;14.40;1.00;;;;;;5047676;28;20443;-78
2022/09/25 04:23:16;;;;;;;0.60;0.10;;;14.40;1.00;;;;;;5034267;28;20467;-78
2022/09/25 04:25:44;;;;;;;0.60;0.10;;;14.40;1.00;;;;;;5035213;28;20463;-77
2022/09/25 04:28:12;;;;;;;0.60;0.13;;;14.40;1.00;;;;;;5034654;28;20941;-77
2022/09/25 04:30:40;;;;;;;0.60;0.13;;;14.40;1.00;;;;;;5034862;28;20483;-77
2022/09/25 04:35:55;;;;;;;0.80;0.37;;;14.30;1.00;;;;;;5033972;28;20487;-77
2022/09/25 04:38:24;;;;;;;0.90;0.50;;;14.30;1.00;;;;;;5034677;28;20447;-77
2022/09/25 04:40:52;;;;;;;0.60;0.13;;;14.30;1.00;;;;;;5034391;28;20440;-77
2022/09/25 04:43:20;;;;;;;0.60;0.10;;;14.30;1.00;;;;;;5033984;28;20563;-77
2022/09/25 04:45:47;;;;;;;0.60;0.10;;;14.30;1.00;;;;;;5034483;28;20447;-79
2022/09/25 04:48:15;;;;;;;0.60;0.10;;;14.20;1.00;;;;;;5034368;28;20535;-77
2022/09/25 04:50:48;;;;;;;0.60;0.10;;;14.30;1.00;;;;;;5034505;28;20482;-78
2022/09/25 04:53:16;;;;;;;0.60;0.10;;;14.20;1.00;;;;;;5034459;28;20467;-78
2022/09/25 04:55:46;;;;;;;0.60;0.10;;;14.20;1.00;;;;;;5034431;28;20443;-78
2022/09/25 04:58:14;;;;;;;0.60;0.10;;;14.20;1.00;;;;;;5033590;28;20447;-77
2022/09/25 05:00:42;;;;;;;0.60;0.20;;;14.20;1.00;;;;;;5033539;28;20501;-77
2022/09/25 05:03:10;;;;;;;0.60;0.10;;;14.20;1.00;;;;;;5045125;28;20510;-78
2022/09/25 05:05:38;;;;;;;0.60;0.13;;;14.20;1.00;;;;;;5054036;28;20439;-77
2022/09/25 05:08:06;;;;;;;0.60;0.10;;;14.20;1.00;;;;;;5053782;28;20841;-78
2022/09/25 05:10:34;;;;;;;0.60;0.10;;;14.20;1.00;;;;;;5048311;28;20471;-78
2022/09/25 05:13:05;;;;;;;0.60;0.10;;;14.20;1.00;;;;;;5033898;28;20815;-77
2022/09/25 05:15:33;;;;;;;0.60;0.10;;;14.20;1.00;;;;;;5034186;28;20513;-77
2022/09/25 05:18:02;;;;;;;0.60;0.10;;;14.20;1.00;;;;;;5035502;28;20502;-77
2022/09/25 05:20:31;;;;;;;0.60;0.10;;;14.20;1.00;;;;;;5038725;28;20440;-78
2022/09/25 05:23:00;;;;;;;0.60;0.10;;;14.20;1.00;;;;;;5033107;28;20479;-78
2022/09/25 05:25:28;;;;;;;0.60;0.10;;;14.20;1.00;;;;;;5033307;28;20929;-78
2022/09/25 05:27:58;;;;;;;0.60;0.10;;;14.20;1.00;;;;;;5033716;28;20443;-77
2022/09/25 05:30:29;;;;;;;0.60;0.10;;;14.20;1.00;;;;;;5033941;28;20475;-77
2022/09/25 05:32:58;;;;;;;0.60;0.10;;;14.20;1.00;;;;;;5033733;28;20732;-78
2022/09/25 05:35:28;;;;;;;0.60;0.10;;;14.20;1.00;;;;;;5053152;28;20455;-77
2022/09/25 05:37:56;;;;;;;0.60;0.20;;;14.20;1.00;;;;;;5034307;28;20808;-77
2022/09/25 05:40:25;;;;;;;0.60;0.10;;;14.20;1.00;;;;;;5033339;28;20510;-79
2022/09/25 05:42:54;;;;;;;0.60;0.10;;;14.20;1.00;;;;;;5032929;28;20551;-77
2022/09/25 05:45:23;;;;;;;0.60;0.10;;;14.20;1.00;;;;;;5033412;28;20455;-77
2022/09/25 05:48:01;;;;;;;0.60;0.10;;;;;;;;;;5033455;28;20447;-77
2022/09/25 05:50:31;;;;;;;0.60;0.10;;;14.20;1.00;;;;;;5030458;28;20602;-78
2022/09/25 05:52:59;;;;;;;0.60;0.10;;;14.10;1.00;;;;;;5031852;28;20467;-78
2022/09/25 05:55:27;;;;;;;0.60;0.10;;;14.20;1.00;;;;;;5032827;28;20440;-78
2022/09/25 05:57:59;;;;;;;0.60;0.10;;;14.10;1.00;;;;;;5032891;28;20493;-78
2022/09/25 06:00:27;;;;;;;0.60;0.13;;;14.10;1.00;;;;;;5033301;28;20440;-78
2022/09/25 06:02:55;;;;;;;0.60;0.10;;;14.10;1.00;;;;;;5032785;28;20468;-78
2022/09/25 06:05:24;;;;;;;0.60;0.10;;;14.10;1.00;;;;;;5020266;28;20479;-78
2022/09/25 06:07:53;;;;;;;0.60;0.10;;;14.10;1.00;;;;;;5033757;28;20478;-78
2022/09/25 06:10:24;;;;;;;0.60;0.10;;;14.10;1.00;;;;;;5032735;28;20505;-78
2022/09/25 06:12:54;;;;;;;0.60;0.10;;;14.10;1.00;;;;;;5013491;28;20475;-78
2022/09/25 06:15:22;;;;;;;0.60;0.10;;;14.10;1.00;;;;;;5025605;28;20462;-78
2022/09/25 06:17:50;;;;;;;0.60;0.10;;;14.10;1.00;;;;;;5032589;28;20452;-78
2022/09/25 06:20:18;;;;;;;0.60;0.10;;;14.10;1.00;;;;;;5034527;28;20471;-78
2022/09/25 06:22:53;;;;;;;0.60;0.10;;;14.10;1.00;;;;;;5034246;28;20795;-77
2022/09/25 06:25:22;;;;;;;0.70;0.57;;;14.10;1.00;;;;;;5031546;28;20458;-78
2022/09/25 06:27:52;;;;;;;0.60;0.10;;;14.10;1.00;;;;;;5033585;28;21039;-78
2022/09/25 06:30:20;;;;;;;0.60;0.10;;;14.10;1.00;;;;;;5034677;28;20444;-77
2022/09/25 06:32:49;;;;;;;0.60;0.10;;;14.10;1.00;;;;;;5035133;28;20487;-78
2022/09/25 06:35:17;;;;;;;0.60;0.10;;;14.10;1.00;;;;;;5040750;28;20443;-78
2022/09/25 06:37:45;;;;;;;0.60;0.10;;;14.10;1.00;;;;;;5055551;28;20500;-77
2022/09/25 06:40:14;;;;;;;0.60;0.10;;;14.10;1.00;;;;;;5055112;28;20508;-77
2022/09/25 06:42:44;;;;;;;0.60;0.10;;;14.10;1.00;;;;;;5055223;28;20466;-77
2022/09/25 06:45:12;;;;;;;0.60;0.10;;;14.10;1.00;;;;;;5020056;28;20443;-78
2022/09/25 06:47:40;;;;;;;0.60;0.10;;;14.10;1.00;;;;;;5035970;28;20470;-77
2022/09/25 06:50:08;;;;;;;0.60;0.10;;;14.10;1.00;;;;;;5038083;28;20504;-77
2022/09/25 06:52:42;;;;;;;0.60;0.10;;;;;;;;;;5040669;28;21008;-77
2022/09/25 06:55:09;;;;;;;0.60;0.10;;;14.10;1.00;;;;;;5034870;28;20463;-77
2022/09/25 06:57:38;;;;;;;0.60;0.10;;;14.10;1.00;;;;;;5025460;28;20455;-77
2022/09/25 07:00:08;;;;;;;0.60;0.10;;;14.10;1.00;;;;;;5035849;28;20444;-76
2022/09/25 07:05:21;;;;;;;0.60;0.10;;;14.10;1.00;;;;;;5041768;28;20459;-76
2022/09/25 07:07:49;;;;;;;0.80;0.27;;;14.10;1.00;;;;;;5045952;28;20451;-75
2022/09/25 07:10:17;;;;;;;0.60;0.10;;;14.10;1.00;;;;;;5042116;28;20447;-76
2022/09/25 07:12:46;;;;;;;0.60;0.10;;;14.10;1.00;;;;;;5039527;28;20487;-78
2022/09/25 07:15:15;;;;;;;0.60;0.10;;;14.10;1.00;;;;;;5038328;28;21007;-76
2022/09/25 07:17:43;;;;;;;0.60;0.17;;;14.10;1.00;;;;;;5045027;28;20443;-76
2022/09/25 07:20:12;;;;;;;0.60;0.10;;;14.10;1.00;;;;;;5039636;28;20450;-77
2022/09/25 07:22:40;;;;;;;0.60;0.10;;;14.10;1.00;;;;;;5040389;28;20467;-76
2022/09/25 07:25:09;;;;;;;0.60;0.10;;;14.10;1.00;;;;;;5042301;28;20525;-75
2022/09/25 07:27:37;;;;;;;0.60;0.10;;;14.10;1.00;;;;;;5036271;28;20937;-76
2022/09/25 07:30:08;;;;;;;0.60;0.10;;;14.10;1.00;;;;;;5043799;28;20445;-76
2022/09/25 07:32:36;;;;;;;2.90;0.50;;;;;;;;;;5053237;28;20532;-76
2022/09/25 07:35:05;;;;;;;0.60;0.10;;;;;;;;;;5047579;28;20949;-76
2022/09/25 07:37:33;;;;;;;0.60;0.10;;;14.10;1.00;;;;;;5051876;28;20879;-75
2022/09/25 07:40:01;;;;;;;0.60;0.10;;;14.10;1.00;;;;;;5055881;28;20485;-74
2022/09/25 07:42:30;;;;;;;0.60;0.20;;;14.10;1.00;;;;;;5049773;28;20475;-76
2022/09/25 07:44:57;;;;;;;0.60;0.10;;;14.10;1.00;;;;;;5048453;28;20443;-75
2022/09/25 07:47:27;;;;;;;0.70;0.60;;;14.10;1.00;;;;;;5035193;28;20493;-75
2022/09/25 07:49:54;;;;;;;0.60;0.10;;;14.20;1.00;;;;;;5035766;28;21000;-77
2022/09/25 07:52:22;;;;;;;0.70;0.20;;;14.20;1.00;;;;;;5045712;28;20481;-76
2022/09/25 07:54:50;;;;;;;0.60;0.10;;;14.20;1.00;;;;;;5049090;28;20439;-76
2022/09/25 07:57:19;;;;;;;0.60;0.13;;;14.20;1.00;;;;;;5042709;28;20479;-76
2022/09/25 07:59:47;;;;;;;0.60;0.10;;;14.20;1.00;;;;;;5046763;28;20446;-76
2022/09/25 08:02:15;;;;;;;0.60;0.10;;;14.20;1.00;;;;;;5049056;28;20446;-77
2022/09/25 08:04:44;;;;;;;0.80;0.77;;;14.10;1.00;;;;;;5049229;28;20470;-77
2022/09/25 08:07:12;;;;;;;0.60;0.10;;;14.20;1.00;;;;;;5037100;28;20439;-77
2022/09/25 08:09:40;;;;;;;0.60;0.10;;;14.20;1.00;;;;;;5034579;28;20436;-76
2022/09/25 08:12:11;;;;;;;0.70;0.50;;;14.20;1.00;;;;;;5034405;28;20471;-77
2022/09/25 08:14:40;;;;;;;1.10;0.90;;;14.10;1.00;;;;;;5033641;28;20514;-77
2022/09/25 08:17:07;;;;;;;0.60;0.10;;;14.10;1.00;;;;;;5033994;28;20513;-75
2022/09/25 08:19:35;;;;;;;0.70;0.30;;;14.10;1.00;;;;;;5034758;28;20447;-78
2022/09/25 08:22:04;;;;;;;0.60;0.10;;;14.10;1.00;;;;;;5034586;28;20879;-78
2022/09/25 08:24:32;;;;;;;0.60;0.20;;;14.10;1.00;;;;;;5035165;28;20996;-77
2022/09/25 08:27:00;;;;;;;0.60;0.10;;;;;;;;;;5033233;28;20523;-78
2022/09/25 08:29:28;;;;;;;0.60;0.10;;;14.10;1.00;;;;;;5033010;28;20463;-75
2022/09/25 08:31:56;;;;;;;0.60;0.10;;;14.20;1.00;;;;;;5033110;28;20479;-77
2022/09/25 08:34:25;;;;;;;0.60;0.10;;;;;;;;;;5032815;28;20466;-76
2022/09/25 08:37:09;;;;;;;0.60;0.10;;;14.20;1.00;;;;;;5032605;28;20455;-77
2022/09/25 08:39:37;;;;;;;0.60;0.10;;;14.30;1.00;;;;;;5037125;28;20470;-76
2022/09/25 08:42:05;;;;;;;2.73;2.63;;;14.20;1.00;;;;;;5054522;28;20438;-76
2022/09/25 08:44:37;;;;;;;0.60;0.10;;;14.20;1.00;;;;;;5054037;28;20581;-77
2022/09/25 08:50:05;;;;;;;0.60;0.10;;;14.30;3.50;;;;;;5013741;28;20451;-78
2022/09/25 08:52:35;;;;;;;0.60;0.20;;;14.40;4.70;;;;;;5028719;28;20537;-77
2022/09/25 08:55:03;;;;;;;0.60;0.10;;;14.40;6.20;;;;;;5022263;28;20471;-76
2022/09/25 08:57:36;;;;;;;0.60;0.10;;;14.50;2.80;;;;;;5036753;28;20512;-76
2022/09/25 09:00:07;;;;;;;0.60;0.10;;;14.50;3.10;;;;;;5036945;28;20848;-76
2022/09/25 09:02:41;;;;;;;0.60;0.10;;;14.60;1.00;;;;;;5032872;28;20463;-74
2022/09/25 09:05:16;;;;;;;0.60;0.10;;;14.60;1.00;;;;;;5033122;28;20455;-75
2022/09/25 09:07:50;;;;;;;0.60;0.10;;;14.60;1.00;;;;;;5035399;28;20497;-76
2022/09/25 09:10:28;;;;;;;0.60;0.10;;;14.60;1.00;;;;;;5034632;28;20501;-76
2022/09/25 09:13:00;;;;;;;0.60;0.10;;;14.60;1.00;;;;;;5033940;28;20556;-77
2022/09/25 09:15:34;;;;;;;0.60;0.10;;;14.60;1.00;;;;;;5033945;28;20483;-76
2022/09/25 09:18:16;;;;;;;0.60;0.10;;;14.60;1.00;;;;;;5034307;28;20830;-76
2022/09/25 09:20:51;;;;;;;0.60;0.10;;;14.60;1.00;;;;;;5034541;28;20783;-74
2022/09/25 09:23:21;;;;;;;0.60;0.10;;;14.60;1.00;;;;;;5030598;28;20451;-74
2022/09/25 09:25:59;;;;;;;0.60;0.10;;;14.60;1.00;;;;;;5031960;28;20467;-74
2022/09/25 09:29:04;;;;;;;0.60;0.20;;;14.60;1.00;;;;;;5031931;28;20432;-74
2022/09/25 09:31:45;;;;;;;0.60;0.10;;;14.60;1.00;;;;;;5012903;28;20497;-75
2022/09/25 09:34:31;;;;;;;0.60;0.10;;;14.60;1.00;;;;;;5026013;28;20544;-74
2022/09/25 09:37:28;;;;;;;0.60;0.10;;;14.60;1.00;;;;;;5035510;28;20525;-73
2022/09/25 09:40:12;;;;;;;0.60;0.10;;;14.60;1.00;;;;;;5052452;28;20441;-74
2022/09/25 09:45:21;;;;;;;0.60;0.10;;;14.60;1.00;;;;;;5079034;28;20495;-79
2022/09/25 09:47:59;;;;;;;0.60;0.10;;;14.60;1.00;;;;;;5074946;28;20806;-79
2022/09/25 09:50:40;;;;;;;0.60;0.10;;;14.70;1.00;;;;;;5070428;28;20456;-79
2022/09/25 09:53:20;;;;;;;0.60;0.10;;;14.80;1.00;;;;;;5067829;28;20995;-78
2022/09/25 09:55:56;;;;;;;0.60;0.10;;;14.80;1.00;;;;;;5070536;28;20445;-78
2022/09/25 09:58:30;;;;;;;0.60;0.10;;;14.90;1.00;;;;;;5054061;28;20791;-79
2022/09/25 10:00:59;;;;;;;0.60;0.10;;;14.90;1.00;;;;;;5053096;28;20460;-79
2022/09/25 10:03:52;;;;;;;0.60;0.10;;;16.40;1.00;;;;;;5053350;28;20462;-79
2022/09/25 10:06:39;;;;;;;0.60;0.10;;;15.00;1.00;;;;;;5053708;28;20534;-81
2022/09/25 10:09:15;;;;;;;0.60;0.10;;;15.00;1.00;;;;;;5055338;28;20497;-79
2022/09/25 10:11:47;;;;;;;0.60;0.10;;;15.00;1.00;;;;;;5066854;28;20541;-79
2022/09/25 10:14:19;;;;;;;0.60;0.10;;;15.10;1.00;;;;;;5068754;28;20478;-80
2022/09/25 10:16:52;;;;;;;1.90;1.53;;;;;;;;;;5068046;28;20468;-80
2022/09/25 10:19:23;;;;;;;0.60;0.10;;;15.10;1.00;;;;;;5051797;28;20498;-78
2022/09/25 10:21:55;;;;;;;0.60;0.10;;;15.10;1.00;;;;;;5056301;28;20454;-77
2022/09/25 10:24:51;;;;;;;0.90;0.73;;;15.10;1.00;;;;;;5062700;28;20508;-77
2022/09/25 10:27:28;;;;;;;0.60;0.10;;;15.10;1.00;;;;;;5065512;28;20438;-75
2022/09/25 10:30:21;;;;;;;0.60;0.10;;;15.10;1.00;;;;;;5061545;28;20447;-79
2022/09/25 10:32:56;;;;;;;0.70;0.20;;;15.10;1.00;;;;;;5055969;28;20497;-78
2022/09/25 10:35:28;;;;;;;0.60;0.13;;;15.10;1.00;;;;;;5058076;28;20457;-80
2022/09/25 10:38:00;;;;;;;0.60;0.10;;;15.10;1.00;;;;;;5057531;28;20783;-80
2022/09/25 10:40:31;;;;;;;0.60;0.10;;;15.20;1.00;;;;;;5057180;28;20514;-80
2022/09/25 10:43:06;;;;;;;4.60;4.20;;;15.20;1.00;;;;;;5056717;28;20549;-79
2022/09/25 10:45:37;;;;;;;0.60;0.10;;;15.20;1.00;;;;;;5058532;28;20532;-81
2022/09/25 10:51:16;;;;;;;0.60;0.40;;;15.20;1.00;;;;;;5058074;28;20944;-80
2022/09/25 10:53:44;;;;;;;0.60;0.10;;;13.60;1.00;;;;;;5057399;28;20489;-79
2022/09/25 10:56:17;;;;;;;0.80;0.57;;;15.10;1.00;;;;;;5056435;28;20435;-80
2022/09/25 10:58:51;;;;;;;0.60;0.10;;;15.10;1.00;;;;;;5055661;28;20451;-80
2022/09/25 11:01:19;;;;;;;0.60;0.10;;;14.90;1.00;;;;;;5055910;28;20465;-80
2022/09/25 11:03:53;;;;;;;0.60;0.10;;;15.10;1.00;;;;;;5056560;28;20522;-80
2022/09/25 11:06:25;;;;;;;1.37;0.40;;;15.10;1.00;;;;;;5037951;28;20431;-80
2022/09/25 11:09:07;;;;;;;0.60;0.10;;;15.10;1.00;;;;;;5039733;28;20447;-80
2022/09/25 11:11:37;;;;;;;0.60;0.10;;;15.00;1.00;;;;;;5057784;28;20438;-80
2022/09/25 11:14:20;;;;;;;0.60;0.10;;;15.00;1.00;;;;;;5038451;28;20495;-80
2022/09/25 11:16:51;;;;;;;0.60;0.10;;;15.00;1.00;;;;;;5040645;28;20505;-80
2022/09/25 11:19:25;;;;;;;0.60;0.10;;;15.00;1.00;;;;;;5052984;28;20452;-78
2022/09/25 11:22:06;;;;;;;0.60;0.10;;;14.90;1.00;;;;;;5070987;28;20430;-76
2022/09/25 11:24:47;;;;;;;0.60;0.10;;;14.30;1.00;;;;;;5064542;28;20472;-80
2022/09/25 11:27:20;;;;;;;0.60;0.10;;;15.00;1.00;;;;;;5060905;28;20452;-78
2022/09/25 11:30:01;;;;;;;0.60;0.10;;;15.00;1.00;;;;;;5059088;28;21011;-80
2022/09/25 11:32:34;;;;;;;0.60;0.10;;;15.00;1.00;;;;;;5056641;28;20738;-79
2022/09/25 11:35:40;;;;;;;0.60;0.10;;;15.10;1.00;;;;;;5054894;28;21006;-79
2022/09/25 11:38:17;;;;;;;0.60;0.10;;;15.10;1.00;;;;;;5059341;28;20741;-79
2022/09/25 11:41:15;;;;;;;0.60;0.10;;;15.10;1.00;;;;;;5059700;28;20500;-78
2022/09/25 11:43:51;;;;;;;0.60;0.10;;;15.20;1.00;;;;;;5058038;28;20466;-79
2022/09/25 11:46:34;;;;;;;0.60;0.13;;;15.20;1.00;;;;;;5057742;28;20506;-79
2022/09/25 11:49:09;;;;;;;0.60;0.10;;;15.30;1.00;;;;;;5037195;28;20455;-78
2022/09/25 11:52:17;;;;;;;0.60;0.10;;;15.30;1.00;;;;;;5060195;28;20457;-76
2022/09/25 11:55:13;;;;;;;0.60;0.10;;;15.30;1.00;;;;;;5067724;28;20474;-78
2022/09/25 11:57:53;;;;;;;0.60;0.10;;;15.40;1.00;;;;;;5021733;28;20437;-78
2022/09/25 12:00:30;;;;;;;0.60;0.10;;;15.40;1.00;;;;;;5058544;28;20508;-79
2022/09/25 12:03:13;;;;;;;0.60;0.10;;;15.30;1.00;;;;;;5055391;28;20931;-78
2022/09/25 12:05:53;;;;;;;0.60;0.10;;;15.30;1.00;;;;;;5058404;28;20504;-80
2022/09/25 12:08:46;;;;;;;0.60;0.10;;;15.30;1.00;;;;;;5060138;28;20448;-80
2022/09/25 12:11:23;;;;;;;0.60;0.10;;;15.30;1.00;;;;;;5062364;28;20876;-78
2022/09/25 12:14:02;;;;;;;0.60;0.10;;;15.30;1.00;;;;;;5059209;28;20494;-80
2022/09/25 12:16:38;;;;;;;1.03;0.93;;;15.30;1.00;;;;;;5058060;28;20443;-80
2022/09/25 12:19:22;;;;;;;0.60;0.10;;;15.30;1.00;;;;;;5050427;28;20500;-79
2022/09/25 12:22:00;;;;;;;0.60;0.10;;;15.30;1.00;;;;;;5058411;28;20602;-80
2022/09/25 12:24:40;;;;;;;0.60;0.10;;;15.20;1.00;;;;;;5059580;28;20454;-80
2022/09/25 12:27:15;;;;;;;0.70;0.30;;;15.20;1.00;;;;;;5062654;28;20529;-78
2022/09/25 12:29:58;;;;;;;0.60;0.20;;;15.20;1.00;;;;;;5047812;28;20442;-79
2022/09/25 12:32:40;;;;;;;0.60;0.10;;;15.20;1.00;;;;;;5058846;28;20447;-82
2022/09/25 12:35:22;;;;;;;0.60;0.10;;;15.10;1.00;;;;;;5039581;28;20502;-81
2022/09/25 12:37:54;;;;;;;0.60;0.10;;;15.10;1.00;;;;;;5057276;28;20450;-79
2022/09/25 12:40:28;;;;;;;0.60;0.10;;;15.10;1.00;;;;;;5061106;28;20447;-78
2022/09/25 12:43:00;;;;;;;0.60;0.20;;;15.10;1.00;;;;;;5067296;28;20461;-81
2022/09/25 12:45:34;;;;;;;0.60;0.10;;;15.10;1.00;;;;;;5060092;28;20427;-80
2022/09/25 12:48:11;;;;;;;0.60;0.10;;;15.00;1.00;;;;;;5064237;28;20442;-80
2022/09/25 12:50:48;;;;;;;0.60;0.27;;;15.00;1.00;;;;;;5063727;28;20469;-78
2022/09/25 12:53:27;;;;;;;0.60;0.10;;;15.00;1.00;;;;;;5067234;28;20504;-79
2022/09/25 12:56:00;;;;;;;0.60;0.30;;;15.00;1.00;;;;;;5064479;28;20478;-80
2022/09/25 12:58:45;;;;;;;0.60;0.10;;;15.00;1.00;;;;;;5061014;28;20999;-79
2022/09/25 13:01:19;;;;;;;0.60;0.10;;;15.10;1.00;;;;;;5058279;28;20442;-80
2022/09/25 13:03:56;;;;;;;0.60;0.10;;;15.10;1.00;;;;;;5056999;28;20466;-80
2022/09/25 13:06:35;;;;;;;0.60;0.10;;;15.10;1.00;;;;;;5058061;28;20446;-79
2022/09/25 13:09:12;;;;;;;0.60;0.10;;;15.10;1.00;;;;;;5058219;28;20438;-79
2022/09/25 13:11:45;;;;;;;0.60;0.10;;;15.20;1.00;;;;;;5057575;28;20450;-78
2022/09/25 13:14:22;;;;;;;0.60;0.10;;;15.20;1.00;;;;;;5059309;28;20486;-81
2022/09/25 13:16:50;;;;;;;0.60;0.10;;;;;;;;;;5060058;28;20446;-81
2022/09/25 13:19:27;;;;;;;0.60;0.20;;;15.30;1.00;;;;;;5066997;28;20438;-79
2022/09/25 13:22:05;;;;;;;0.60;0.10;;;15.30;1.00;;;;;;5067979;28;20447;-77
2022/09/25 13:24:45;;;;;;;0.60;0.20;;;15.40;1.00;;;;;;5060504;28;20458;-80
2022/09/25 13:27:21;;;;;;;0.60;0.10;;;15.30;1.00;;;;;;5059314;28;20450;-80
2022/09/25 13:29:57;;;;;;;0.60;0.10;;;15.30;1.00;;;;;;5059830;28;20449;-79
2022/09/25 13:32:30;;;;;;;0.60;0.10;;;15.30;1.00;;;;;;5061252;28;20450;-78
2022/09/25 13:35:02;;;;;;;0.60;0.10;;;15.30;1.00;;;;;;5078098;28;20524;-82
2022/09/25 13:37:35;;;;;;;0.60;0.10;;;15.30;1.00;;;;;;5079031;28;20524;-81
2022/09/25 13:43:19;;;;;;;0.60;0.10;;;15.20;1.00;;;;;;5066354;28;20832;-79
2022/09/25 13:45:49;;;;;;;0.60;0.10;;;15.20;1.00;;;;;;5059109;28;20446;-80
2022/09/25 13:48:36;;;;;;;0.60;0.30;;;15.20;1.00;;;;;;5058699;28;20459;-81
2022/09/25 13:51:37;;;;;;;0.73;0.60;;;15.20;1.00;;;;;;5059319;28;20447;-80
2022/09/25 13:54:26;;;;;;;0.60;0.10;;;15.20;1.00;;;;;;4996992;28;20615;-81
2022/09/25 13:56:54;;;;;;;0.60;0.10;;;15.20;1.00;;;;;;4995785;28;20461;-80